sensor_id;sensor_type;location;lat;lon;timestamp;P1;durP1;ratioP1;P2;durP2;ratioP2
5077;SDS011;2557;51.390;7.494;2024-02-26T00:01:26;3.53;;;2.70;;
5077;SDS011;2557;51.390;7.494;2024-02-26T00:03:52;3.10;;;2.90;;
5077;SDS011;2557;51.390;7.494;2024-02-26T00:06:20;4.73;;;3.40;;
5077;SDS011;2557;51.390;7.494;2024-02-26T00:08:46;4.93;;;3.03;;
5077;SDS011;2557;51.390;7.494;2024-02-26T00:11:12;2.60;;;2.40;;
5077;SDS011;2557;51.390;7.494;2024-02-26T00:13:38;3.00;;;2.70;;
5077;SDS011;2557;51.390;7.494;2024-02-26T00:16:04;5.07;;;4.40;;
5077;SDS011;2557;51.390;7.494;2024-02-26T00:18:31;4.10;;;3.20;;
5077;SDS011;2557;51.390;7.494;2024-02-26T00:20:57;2.80;;;2.60;;
5077;SDS011;2557;51.390;7.494;2024-02-26T00:23:23;2.95;;;2.75;;
5077;SDS011;2557;51.390;7.494;2024-02-26T00:25:49;3.30;;;3.00;;
5077;SDS011;2557;51.390;7.494;2024-02-26T00:28:15;3.70;;;2.87;;
5077;SDS011;2557;51.390;7.494;2024-02-26T00:30:41;3.40;;;2.63;;
5077;SDS011;2557;51.390;7.494;2024-02-26T00:33:07;3.37;;;2.90;;
5077;SDS011;2557;51.390;7.494;2024-02-26T00:35:33;3.20;;;2.87;;
5077;SDS011;2557;51.390;7.494;2024-02-26T00:37:59;4.13;;;3.17;;
5077;SDS011;2557;51.390;7.494;2024-02-26T00:40:27;2.92;;;2.72;;
5077;SDS011;2557;51.390;7.494;2024-02-26T00:42:53;2.60;;;2.30;;
5077;SDS011;2557;51.390;7.494;2024-02-26T00:45:19;2.50;;;2.30;;
5077;SDS011;2557;51.390;7.494;2024-02-26T00:47:45;3.23;;;3.00;;
5077;SDS011;2557;51.390;7.494;2024-02-26T00:50:12;2.93;;;2.40;;
5077;SDS011;2557;51.390;7.494;2024-02-26T00:52:38;2.43;;;2.23;;
5077;SDS011;2557;51.390;7.494;2024-02-26T00:55:04;2.80;;;2.60;;
5077;SDS011;2557;51.390;7.494;2024-02-26T00:57:31;2.50;;;2.30;;
5077;SDS011;2557;51.390;7.494;2024-02-26T00:59:57;2.90;;;2.70;;
5077;SDS011;2557;51.390;7.494;2024-02-26T01:02:24;2.43;;;2.23;;
5077;SDS011;2557;51.390;7.494;2024-02-26T01:04:50;3.15;;;2.33;;
5077;SDS011;2557;51.390;7.494;2024-02-26T01:07:16;2.70;;;2.50;;
5077;SDS011;2557;51.390;7.494;2024-02-26T01:09:42;2.60;;;2.40;;
5077;SDS011;2557;51.390;7.494;2024-02-26T01:12:08;4.22;;;2.38;;
5077;SDS011;2557;51.390;7.494;2024-02-26T01:14:34;2.07;;;1.87;;
5077;SDS011;2557;51.390;7.494;2024-02-26T01:17:00;2.47;;;2.30;;
5077;SDS011;2557;51.390;7.494;2024-02-26T01:19:26;2.57;;;2.37;;
5077;SDS011;2557;51.390;7.494;2024-02-26T01:21:52;5.37;;;2.37;;
5077;SDS011;2557;51.390;7.494;2024-02-26T01:24:18;2.40;;;2.17;;
5077;SDS011;2557;51.390;7.494;2024-02-26T01:26:44;2.20;;;2.10;;
5077;SDS011;2557;51.390;7.494;2024-02-26T01:29:10;2.30;;;2.20;;
5077;SDS011;2557;51.390;7.494;2024-02-26T01:31:36;2.33;;;2.20;;
5077;SDS011;2557;51.390;7.494;2024-02-26T01:34:02;2.25;;;2.15;;
5077;SDS011;2557;51.390;7.494;2024-02-26T01:36:28;2.50;;;2.30;;
5077;SDS011;2557;51.390;7.494;2024-02-26T01:38:54;2.50;;;2.30;;
5077;SDS011;2557;51.390;7.494;2024-02-26T01:41:20;3.87;;;1.97;;
5077;SDS011;2557;51.390;7.494;2024-02-26T01:43:46;2.17;;;2.07;;
5077;SDS011;2557;51.390;7.494;2024-02-26T01:46:14;2.73;;;2.53;;
5077;SDS011;2557;51.390;7.494;2024-02-26T01:48:41;2.33;;;2.20;;
5077;SDS011;2557;51.390;7.494;2024-02-26T01:51:07;2.87;;;2.67;;
5077;SDS011;2557;51.390;7.494;2024-02-26T01:53:33;2.17;;;1.97;;
5077;SDS011;2557;51.390;7.494;2024-02-26T01:56:00;7.10;;;2.50;;
5077;SDS011;2557;51.390;7.494;2024-02-26T01:58:26;2.90;;;2.20;;
5077;SDS011;2557;51.390;7.494;2024-02-26T02:00:52;3.30;;;2.20;;
5077;SDS011;2557;51.390;7.494;2024-02-26T02:03:18;2.40;;;2.20;;
5077;SDS011;2557;51.390;7.494;2024-02-26T02:05:44;2.27;;;2.07;;
5077;SDS011;2557;51.390;7.494;2024-02-26T02:08:10;2.50;;;2.30;;
5077;SDS011;2557;51.390;7.494;2024-02-26T02:10:37;2.40;;;2.20;;
5077;SDS011;2557;51.390;7.494;2024-02-26T02:13:03;2.90;;;2.27;;
5077;SDS011;2557;51.390;7.494;2024-02-26T02:15:29;7.63;;;2.53;;
5077;SDS011;2557;51.390;7.494;2024-02-26T02:17:55;2.40;;;2.17;;
5077;SDS011;2557;51.390;7.494;2024-02-26T02:20:26;2.30;;;2.10;;
5077;SDS011;2557;51.390;7.494;2024-02-26T02:22:52;4.00;;;2.33;;
5077;SDS011;2557;51.390;7.494;2024-02-26T02:25:18;2.10;;;2.00;;
5077;SDS011;2557;51.390;7.494;2024-02-26T02:27:44;2.33;;;2.13;;
5077;SDS011;2557;51.390;7.494;2024-02-26T02:30:10;2.10;;;2.00;;
5077;SDS011;2557;51.390;7.494;2024-02-26T02:32:37;2.50;;;2.27;;
5077;SDS011;2557;51.390;7.494;2024-02-26T02:35:04;2.43;;;2.20;;
5077;SDS011;2557;51.390;7.494;2024-02-26T02:37:30;3.03;;;2.83;;
5077;SDS011;2557;51.390;7.494;2024-02-26T02:39:56;2.43;;;2.27;;
5077;SDS011;2557;51.390;7.494;2024-02-26T02:42:22;2.33;;;2.23;;
5077;SDS011;2557;51.390;7.494;2024-02-26T02:44:48;2.90;;;2.70;;
5077;SDS011;2557;51.390;7.494;2024-02-26T02:47:14;2.33;;;2.13;;
5077;SDS011;2557;51.390;7.494;2024-02-26T02:49:40;2.87;;;2.40;;
5077;SDS011;2557;51.390;7.494;2024-02-26T02:52:06;2.70;;;2.50;;
5077;SDS011;2557;51.390;7.494;2024-02-26T02:54:32;3.70;;;2.50;;
5077;SDS011;2557;51.390;7.494;2024-02-26T02:56:58;2.60;;;2.40;;
5077;SDS011;2557;51.390;7.494;2024-02-26T02:59:24;1.97;;;1.87;;
5077;SDS011;2557;51.390;7.494;2024-02-26T03:01:50;3.10;;;2.43;;
5077;SDS011;2557;51.390;7.494;2024-02-26T03:04:17;8.07;;;2.47;;
5077;SDS011;2557;51.390;7.494;2024-02-26T03:06:43;2.43;;;2.23;;
5077;SDS011;2557;51.390;7.494;2024-02-26T03:09:09;3.90;;;2.60;;
5077;SDS011;2557;51.390;7.494;2024-02-26T03:11:35;2.63;;;2.43;;
5077;SDS011;2557;51.390;7.494;2024-02-26T03:14:01;2.30;;;2.10;;
5077;SDS011;2557;51.390;7.494;2024-02-26T03:16:27;4.30;;;2.80;;
5077;SDS011;2557;51.390;7.494;2024-02-26T03:18:53;4.53;;;2.97;;
5077;SDS011;2557;51.390;7.494;2024-02-26T03:21:19;2.90;;;2.70;;
5077;SDS011;2557;51.390;7.494;2024-02-26T03:23:45;2.43;;;2.27;;
5077;SDS011;2557;51.390;7.494;2024-02-26T03:26:11;2.27;;;2.17;;
5077;SDS011;2557;51.390;7.494;2024-02-26T03:28:39;2.33;;;2.23;;
5077;SDS011;2557;51.390;7.494;2024-02-26T03:31:05;2.57;;;2.37;;
5077;SDS011;2557;51.390;7.494;2024-02-26T03:33:31;2.17;;;2.07;;
5077;SDS011;2557;51.390;7.494;2024-02-26T03:35:57;2.40;;;2.30;;
5077;SDS011;2557;51.390;7.494;2024-02-26T03:38:23;2.53;;;2.33;;
5077;SDS011;2557;51.390;7.494;2024-02-26T03:40:49;3.70;;;2.97;;
5077;SDS011;2557;51.390;7.494;2024-02-26T03:43:16;3.00;;;2.70;;
5077;SDS011;2557;51.390;7.494;2024-02-26T03:45:42;5.40;;;3.33;;
5077;SDS011;2557;51.390;7.494;2024-02-26T03:48:08;4.03;;;2.33;;
5077;SDS011;2557;51.390;7.494;2024-02-26T03:50:34;3.10;;;2.50;;
5077;SDS011;2557;51.390;7.494;2024-02-26T03:53:00;4.00;;;3.23;;
5077;SDS011;2557;51.390;7.494;2024-02-26T03:55:26;3.67;;;2.93;;
5077;SDS011;2557;51.390;7.494;2024-02-26T03:57:52;2.77;;;2.57;;
5077;SDS011;2557;51.390;7.494;2024-02-26T04:00:18;3.73;;;2.77;;
5077;SDS011;2557;51.390;7.494;2024-02-26T04:02:46;3.40;;;3.17;;
5077;SDS011;2557;51.390;7.494;2024-02-26T04:05:12;3.53;;;3.22;;
5077;SDS011;2557;51.390;7.494;2024-02-26T04:07:39;4.27;;;2.73;;
5077;SDS011;2557;51.390;7.494;2024-02-26T04:10:11;2.95;;;2.75;;
5077;SDS011;2557;51.390;7.494;2024-02-26T04:12:38;3.92;;;3.05;;
5077;SDS011;2557;51.390;7.494;2024-02-26T04:15:06;3.45;;;3.25;;
5077;SDS011;2557;51.390;7.494;2024-02-26T04:17:32;3.20;;;2.90;;
5077;SDS011;2557;51.390;7.494;2024-02-26T04:19:58;2.70;;;2.50;;
5077;SDS011;2557;51.390;7.494;2024-02-26T04:22:24;2.83;;;2.50;;
5077;SDS011;2557;51.390;7.494;2024-02-26T04:24:50;6.53;;;3.80;;
5077;SDS011;2557;51.390;7.494;2024-02-26T04:27:16;3.23;;;2.77;;
5077;SDS011;2557;51.390;7.494;2024-02-26T04:29:42;3.20;;;2.93;;
5077;SDS011;2557;51.390;7.494;2024-02-26T04:32:08;3.57;;;3.27;;
5077;SDS011;2557;51.390;7.494;2024-02-26T04:34:34;3.95;;;3.75;;
5077;SDS011;2557;51.390;7.494;2024-02-26T04:37:00;2.97;;;2.78;;
5077;SDS011;2557;51.390;7.494;2024-02-26T04:39:26;3.37;;;3.07;;
5077;SDS011;2557;51.390;7.494;2024-02-26T04:41:52;2.90;;;2.70;;
5077;SDS011;2557;51.390;7.494;2024-02-26T04:44:18;2.97;;;2.67;;
5077;SDS011;2557;51.390;7.494;2024-02-26T04:46:44;4.33;;;2.67;;
5077;SDS011;2557;51.390;7.494;2024-02-26T04:49:10;3.63;;;3.33;;
5077;SDS011;2557;51.390;7.494;2024-02-26T04:51:36;4.57;;;3.00;;
5077;SDS011;2557;51.390;7.494;2024-02-26T04:54:02;4.25;;;3.30;;
5077;SDS011;2557;51.390;7.494;2024-02-26T04:56:28;3.10;;;2.90;;
5077;SDS011;2557;51.390;7.494;2024-02-26T04:58:54;2.80;;;2.60;;
5077;SDS011;2557;51.390;7.494;2024-02-26T05:01:20;3.80;;;3.50;;
5077;SDS011;2557;51.390;7.494;2024-02-26T05:03:46;3.63;;;3.42;;
5077;SDS011;2557;51.390;7.494;2024-02-26T05:06:12;4.03;;;3.58;;
5077;SDS011;2557;51.390;7.494;2024-02-26T05:08:38;3.35;;;3.15;;
5077;SDS011;2557;51.390;7.494;2024-02-26T05:11:04;3.17;;;2.95;;
5077;SDS011;2557;51.390;7.494;2024-02-26T05:13:33;3.67;;;3.38;;
5077;SDS011;2557;51.390;7.494;2024-02-26T05:15:59;3.70;;;3.33;;
5077;SDS011;2557;51.390;7.494;2024-02-26T05:18:25;3.30;;;3.00;;
5077;SDS011;2557;51.390;7.494;2024-02-26T05:20:51;3.90;;;2.97;;
5077;SDS011;2557;51.390;7.494;2024-02-26T05:23:17;4.60;;;2.67;;
5077;SDS011;2557;51.390;7.494;2024-02-26T05:25:43;3.20;;;2.90;;
5077;SDS011;2557;51.390;7.494;2024-02-26T05:28:13;3.13;;;2.93;;
5077;SDS011;2557;51.390;7.494;2024-02-26T05:30:40;3.20;;;3.00;;
5077;SDS011;2557;51.390;7.494;2024-02-26T05:33:06;3.72;;;2.90;;
5077;SDS011;2557;51.390;7.494;2024-02-26T05:35:32;3.73;;;3.40;;
5077;SDS011;2557;51.390;7.494;2024-02-26T05:37:58;4.90;;;3.60;;
5077;SDS011;2557;51.390;7.494;2024-02-26T05:40:24;3.47;;;3.07;;
5077;SDS011;2557;51.390;7.494;2024-02-26T05:42:50;3.97;;;3.50;;
5077;SDS011;2557;51.390;7.494;2024-02-26T05:45:16;3.83;;;3.53;;
5077;SDS011;2557;51.390;7.494;2024-02-26T05:47:43;3.88;;;3.17;;
5077;SDS011;2557;51.390;7.494;2024-02-26T05:50:12;6.33;;;3.47;;
5077;SDS011;2557;51.390;7.494;2024-02-26T05:52:38;4.60;;;3.67;;
5077;SDS011;2557;51.390;7.494;2024-02-26T05:55:04;6.35;;;4.05;;
5077;SDS011;2557;51.390;7.494;2024-02-26T05:57:31;4.70;;;4.35;;
5077;SDS011;2557;51.390;7.494;2024-02-26T05:59:57;3.55;;;3.22;;
5077;SDS011;2557;51.390;7.494;2024-02-26T06:02:27;6.13;;;3.55;;
5077;SDS011;2557;51.390;7.494;2024-02-26T06:04:53;3.53;;;3.23;;
5077;SDS011;2557;51.390;7.494;2024-02-26T06:07:19;3.97;;;3.63;;
5077;SDS011;2557;51.390;7.494;2024-02-26T06:09:45;6.07;;;3.23;;
5077;SDS011;2557;51.390;7.494;2024-02-26T06:12:11;3.28;;;3.00;;
5077;SDS011;2557;51.390;7.494;2024-02-26T06:14:37;3.25;;;2.97;;
5077;SDS011;2557;51.390;7.494;2024-02-26T06:17:03;6.10;;;3.37;;
5077;SDS011;2557;51.390;7.494;2024-02-26T06:19:29;3.30;;;3.10;;
5077;SDS011;2557;51.390;7.494;2024-02-26T06:21:55;3.60;;;3.27;;
5077;SDS011;2557;51.390;7.494;2024-02-26T06:24:21;3.20;;;3.00;;
5077;SDS011;2557;51.390;7.494;2024-02-26T06:26:47;7.80;;;3.87;;
5077;SDS011;2557;51.390;7.494;2024-02-26T06:29:14;3.67;;;3.15;;
5077;SDS011;2557;51.390;7.494;2024-02-26T06:31:40;3.63;;;3.30;;
5077;SDS011;2557;51.390;7.494;2024-02-26T06:34:06;4.30;;;2.60;;
5077;SDS011;2557;51.390;7.494;2024-02-26T06:36:32;3.13;;;2.93;;
5077;SDS011;2557;51.390;7.494;2024-02-26T06:38:59;3.65;;;3.35;;
5077;SDS011;2557;51.390;7.494;2024-02-26T06:41:25;5.80;;;3.15;;
5077;SDS011;2557;51.390;7.494;2024-02-26T06:43:55;4.47;;;3.33;;
5077;SDS011;2557;51.390;7.494;2024-02-26T06:46:22;3.13;;;2.92;;
5077;SDS011;2557;51.390;7.494;2024-02-26T06:48:48;3.40;;;3.20;;
5077;SDS011;2557;51.390;7.494;2024-02-26T06:51:14;2.80;;;2.70;;
5077;SDS011;2557;51.390;7.494;2024-02-26T06:53:40;4.55;;;4.15;;
5077;SDS011;2557;51.390;7.494;2024-02-26T06:56:06;5.83;;;4.03;;
5077;SDS011;2557;51.390;7.494;2024-02-26T06:58:32;7.50;;;3.73;;
5077;SDS011;2557;51.390;7.494;2024-02-26T07:00:59;4.03;;;3.65;;
5077;SDS011;2557;51.390;7.494;2024-02-26T07:03:25;4.63;;;4.23;;
5077;SDS011;2557;51.390;7.494;2024-02-26T07:05:51;10.43;;;3.77;;
5077;SDS011;2557;51.390;7.494;2024-02-26T07:08:17;3.87;;;3.57;;
5077;SDS011;2557;51.390;7.494;2024-02-26T07:10:43;4.10;;;3.80;;
5077;SDS011;2557;51.390;7.494;2024-02-26T07:13:09;5.28;;;4.25;;
5077;SDS011;2557;51.390;7.494;2024-02-26T07:15:35;4.83;;;3.40;;
5077;SDS011;2557;51.390;7.494;2024-02-26T07:18:01;3.60;;;3.30;;
5077;SDS011;2557;51.390;7.494;2024-02-26T07:20:28;4.20;;;3.75;;
5077;SDS011;2557;51.390;7.494;2024-02-26T07:22:55;4.80;;;3.45;;
5077;SDS011;2557;51.390;7.494;2024-02-26T07:25:21;4.55;;;3.50;;
5077;SDS011;2557;51.390;7.494;2024-02-26T07:27:47;4.25;;;3.80;;
5077;SDS011;2557;51.390;7.494;2024-02-26T07:30:13;4.70;;;3.33;;
5077;SDS011;2557;51.390;7.494;2024-02-26T07:32:40;3.55;;;3.25;;
5077;SDS011;2557;51.390;7.494;2024-02-26T07:35:06;4.20;;;3.90;;
5077;SDS011;2557;51.390;7.494;2024-02-26T07:37:32;6.40;;;3.83;;
5077;SDS011;2557;51.390;7.494;2024-02-26T07:39:58;5.20;;;4.07;;
5077;SDS011;2557;51.390;7.494;2024-02-26T07:42:24;4.50;;;4.10;;
5077;SDS011;2557;51.390;7.494;2024-02-26T07:44:50;4.23;;;3.83;;
5077;SDS011;2557;51.390;7.494;2024-02-26T07:47:17;3.90;;;3.40;;
5077;SDS011;2557;51.390;7.494;2024-02-26T07:49:43;4.37;;;3.97;;
5077;SDS011;2557;51.390;7.494;2024-02-26T07:52:09;5.10;;;4.60;;
5077;SDS011;2557;51.390;7.494;2024-02-26T07:54:35;4.70;;;4.37;;
5077;SDS011;2557;51.390;7.494;2024-02-26T07:57:01;4.40;;;4.10;;
5077;SDS011;2557;51.390;7.494;2024-02-26T07:59:30;4.67;;;4.27;;
5077;SDS011;2557;51.390;7.494;2024-02-26T08:01:56;8.73;;;4.10;;
5077;SDS011;2557;51.390;7.494;2024-02-26T08:04:22;4.40;;;4.00;;
5077;SDS011;2557;51.390;7.494;2024-02-26T08:06:48;5.97;;;4.50;;
5077;SDS011;2557;51.390;7.494;2024-02-26T08:09:14;4.40;;;3.53;;
5077;SDS011;2557;51.390;7.494;2024-02-26T08:11:40;5.07;;;4.50;;
5077;SDS011;2557;51.390;7.494;2024-02-26T08:14:06;4.03;;;3.67;;
5077;SDS011;2557;51.390;7.494;2024-02-26T08:16:32;4.20;;;3.83;;
5077;SDS011;2557;51.390;7.494;2024-02-26T08:18:58;5.43;;;4.20;;
5077;SDS011;2557;51.390;7.494;2024-02-26T08:21:24;5.33;;;4.87;;
5077;SDS011;2557;51.390;7.494;2024-02-26T08:23:50;4.47;;;4.07;;
5077;SDS011;2557;51.390;7.494;2024-02-26T08:26:16;5.37;;;3.87;;
5077;SDS011;2557;51.390;7.494;2024-02-26T08:28:42;6.30;;;4.30;;
5077;SDS011;2557;51.390;7.494;2024-02-26T08:31:09;4.57;;;4.00;;
5077;SDS011;2557;51.390;7.494;2024-02-26T08:33:35;4.23;;;3.80;;
5077;SDS011;2557;51.390;7.494;2024-02-26T08:36:05;7.10;;;4.70;;
5077;SDS011;2557;51.390;7.494;2024-02-26T08:38:31;4.50;;;3.83;;
5077;SDS011;2557;51.390;7.494;2024-02-26T08:40:59;4.70;;;4.27;;
5077;SDS011;2557;51.390;7.494;2024-02-26T08:43:25;4.60;;;4.17;;
5077;SDS011;2557;51.390;7.494;2024-02-26T08:45:51;4.50;;;4.10;;
5077;SDS011;2557;51.390;7.494;2024-02-26T08:48:17;4.13;;;3.60;;
5077;SDS011;2557;51.390;7.494;2024-02-26T08:50:43;5.27;;;4.50;;
5077;SDS011;2557;51.390;7.494;2024-02-26T08:53:09;5.00;;;4.43;;
5077;SDS011;2557;51.390;7.494;2024-02-26T08:55:35;3.77;;;3.50;;
5077;SDS011;2557;51.390;7.494;2024-02-26T08:58:01;4.17;;;3.83;;
5077;SDS011;2557;51.390;7.494;2024-02-26T09:00:27;5.27;;;4.23;;
5077;SDS011;2557;51.390;7.494;2024-02-26T09:02:53;4.87;;;4.30;;
5077;SDS011;2557;51.390;7.494;2024-02-26T09:05:19;6.30;;;4.50;;
5077;SDS011;2557;51.390;7.494;2024-02-26T09:07:45;6.37;;;4.03;;
5077;SDS011;2557;51.390;7.494;2024-02-26T09:10:14;4.87;;;4.47;;
5077;SDS011;2557;51.390;7.494;2024-02-26T09:12:40;6.13;;;4.50;;
5077;SDS011;2557;51.390;7.494;2024-02-26T09:15:06;4.17;;;3.87;;
5077;SDS011;2557;51.390;7.494;2024-02-26T09:17:33;4.90;;;4.50;;
5077;SDS011;2557;51.390;7.494;2024-02-26T09:19:59;8.20;;;4.70;;
5077;SDS011;2557;51.390;7.494;2024-02-26T09:22:25;5.10;;;4.23;;
5077;SDS011;2557;51.390;7.494;2024-02-26T09:24:51;4.57;;;3.57;;
5077;SDS011;2557;51.390;7.494;2024-02-26T09:27:18;4.23;;;3.83;;
5077;SDS011;2557;51.390;7.494;2024-02-26T09:29:44;4.60;;;4.17;;
5077;SDS011;2557;51.390;7.494;2024-02-26T09:32:11;4.43;;;3.80;;
5077;SDS011;2557;51.390;7.494;2024-02-26T09:34:39;4.87;;;4.37;;
5077;SDS011;2557;51.390;7.494;2024-02-26T09:37:05;7.50;;;4.17;;
5077;SDS011;2557;51.390;7.494;2024-02-26T09:39:31;5.27;;;4.77;;
5077;SDS011;2557;51.390;7.494;2024-02-26T09:41:57;4.43;;;4.03;;
5077;SDS011;2557;51.390;7.494;2024-02-26T09:44:24;7.40;;;4.20;;
5077;SDS011;2557;51.390;7.494;2024-02-26T09:46:50;7.45;;;4.10;;
5077;SDS011;2557;51.390;7.494;2024-02-26T09:49:19;6.87;;;4.03;;
5077;SDS011;2557;51.390;7.494;2024-02-26T09:51:46;4.77;;;4.13;;
5077;SDS011;2557;51.390;7.494;2024-02-26T09:54:13;5.00;;;3.67;;
5077;SDS011;2557;51.390;7.494;2024-02-26T09:56:39;6.53;;;4.63;;
5077;SDS011;2557;51.390;7.494;2024-02-26T09:59:06;5.83;;;4.83;;
5077;SDS011;2557;51.390;7.494;2024-02-26T10:01:36;4.30;;;4.00;;
5077;SDS011;2557;51.390;7.494;2024-02-26T10:04:03;5.40;;;4.90;;
5077;SDS011;2557;51.390;7.494;2024-02-26T10:06:30;5.07;;;4.50;;
5077;SDS011;2557;51.390;7.494;2024-02-26T10:08:56;5.23;;;4.70;;
5077;SDS011;2557;51.390;7.494;2024-02-26T10:11:25;5.10;;;4.50;;
5077;SDS011;2557;51.390;7.494;2024-02-26T10:13:51;5.27;;;4.83;;
5077;SDS011;2557;51.390;7.494;2024-02-26T10:16:17;5.37;;;4.80;;
5077;SDS011;2557;51.390;7.494;2024-02-26T10:18:50;5.33;;;4.93;;
5077;SDS011;2557;51.390;7.494;2024-02-26T10:21:16;4.70;;;4.20;;
5077;SDS011;2557;51.390;7.494;2024-02-26T10:23:45;5.93;;;5.37;;
5077;SDS011;2557;51.390;7.494;2024-02-26T10:26:12;6.07;;;5.47;;
5077;SDS011;2557;51.390;7.494;2024-02-26T10:28:39;5.47;;;5.07;;
5077;SDS011;2557;51.390;7.494;2024-02-26T10:31:06;6.50;;;5.50;;
5077;SDS011;2557;51.390;7.494;2024-02-26T10:33:33;5.43;;;4.97;;
5077;SDS011;2557;51.390;7.494;2024-02-26T10:36:01;6.83;;;5.20;;
5077;SDS011;2557;51.390;7.494;2024-02-26T10:38:27;5.43;;;4.70;;
5077;SDS011;2557;51.390;7.494;2024-02-26T10:40:53;7.90;;;5.50;;
5077;SDS011;2557;51.390;7.494;2024-02-26T10:43:20;5.03;;;4.60;;
5077;SDS011;2557;51.390;7.494;2024-02-26T10:45:46;5.70;;;5.20;;
5077;SDS011;2557;51.390;7.494;2024-02-26T10:48:13;5.37;;;4.87;;
5077;SDS011;2557;51.390;7.494;2024-02-26T10:50:39;7.93;;;5.73;;
5077;SDS011;2557;51.390;7.494;2024-02-26T10:53:07;7.37;;;6.10;;
5077;SDS011;2557;51.390;7.494;2024-02-26T10:55:35;6.20;;;5.70;;
5077;SDS011;2557;51.390;7.494;2024-02-26T10:58:02;5.80;;;4.93;;
5077;SDS011;2557;51.390;7.494;2024-02-26T11:00:28;8.53;;;6.60;;
5077;SDS011;2557;51.390;7.494;2024-02-26T11:02:56;6.93;;;5.57;;
5077;SDS011;2557;51.390;7.494;2024-02-26T11:05:26;7.60;;;6.40;;
5077;SDS011;2557;51.390;7.494;2024-02-26T11:07:52;7.03;;;5.93;;
5077;SDS011;2557;51.390;7.494;2024-02-26T11:10:18;9.37;;;7.37;;
5077;SDS011;2557;51.390;7.494;2024-02-26T11:12:44;13.77;;;6.80;;
5077;SDS011;2557;51.390;7.494;2024-02-26T11:15:10;9.53;;;6.40;;
5077;SDS011;2557;51.390;7.494;2024-02-26T11:17:37;9.90;;;6.70;;
5077;SDS011;2557;51.390;7.494;2024-02-26T11:20:04;10.03;;;7.67;;
5077;SDS011;2557;51.390;7.494;2024-02-26T11:22:30;11.40;;;8.53;;
5077;SDS011;2557;51.390;7.494;2024-02-26T11:24:58;8.80;;;7.90;;
5077;SDS011;2557;51.390;7.494;2024-02-26T11:27:36;10.60;;;7.10;;
5077;SDS011;2557;51.390;7.494;2024-02-26T11:30:03;11.30;;;8.10;;
5077;SDS011;2557;51.390;7.494;2024-02-26T11:32:30;12.47;;;7.47;;
5077;SDS011;2557;51.390;7.494;2024-02-26T11:34:57;16.43;;;8.97;;
5077;SDS011;2557;51.390;7.494;2024-02-26T11:37:24;13.43;;;9.00;;
5077;SDS011;2557;51.390;7.494;2024-02-26T11:39:51;10.47;;;8.53;;
5077;SDS011;2557;51.390;7.494;2024-02-26T11:42:17;10.70;;;7.93;;
5077;SDS011;2557;51.390;7.494;2024-02-26T11:44:48;13.43;;;8.37;;
5077;SDS011;2557;51.390;7.494;2024-02-26T11:47:21;12.77;;;9.50;;
5077;SDS011;2557;51.390;7.494;2024-02-26T11:49:48;13.57;;;8.53;;
5077;SDS011;2557;51.390;7.494;2024-02-26T11:52:14;9.63;;;7.90;;
5077;SDS011;2557;51.390;7.494;2024-02-26T11:57:20;9.87;;;8.13;;
5077;SDS011;2557;51.390;7.494;2024-02-26T11:59:47;10.30;;;8.63;;
5077;SDS011;2557;51.390;7.494;2024-02-26T12:02:36;11.17;;;7.07;;
5077;SDS011;2557;51.390;7.494;2024-02-26T12:04:59;8.17;;;7.17;;
5077;SDS011;2557;51.390;7.494;2024-02-26T12:07:25;14.40;;;8.00;;
5077;SDS011;2557;51.390;7.494;2024-02-26T12:09:51;9.07;;;7.30;;
5077;SDS011;2557;51.390;7.494;2024-02-26T12:12:17;7.43;;;6.37;;
5077;SDS011;2557;51.390;7.494;2024-02-26T12:14:51;10.30;;;8.50;;
5077;SDS011;2557;51.390;7.494;2024-02-26T12:17:21;7.30;;;6.30;;
5077;SDS011;2557;51.390;7.494;2024-02-26T12:19:48;11.80;;;7.60;;
5077;SDS011;2557;51.390;7.494;2024-02-26T12:22:14;8.17;;;6.30;;
5077;SDS011;2557;51.390;7.494;2024-02-26T12:24:40;6.60;;;6.00;;
5077;SDS011;2557;51.390;7.494;2024-02-26T12:27:06;9.83;;;5.73;;
5077;SDS011;2557;51.390;7.494;2024-02-26T12:29:32;6.57;;;5.50;;
5077;SDS011;2557;51.390;7.494;2024-02-26T12:31:58;6.63;;;5.87;;
5077;SDS011;2557;51.390;7.494;2024-02-26T12:34:24;5.67;;;5.03;;
5077;SDS011;2557;51.390;7.494;2024-02-26T12:36:51;6.50;;;5.90;;
5077;SDS011;2557;51.390;7.494;2024-02-26T12:39:18;6.37;;;5.77;;
5077;SDS011;2557;51.390;7.494;2024-02-26T12:41:45;10.10;;;5.77;;
5077;SDS011;2557;51.390;7.494;2024-02-26T12:44:15;5.47;;;4.97;;
5077;SDS011;2557;51.390;7.494;2024-02-26T12:46:41;5.17;;;4.70;;
5077;SDS011;2557;51.390;7.494;2024-02-26T12:49:07;10.00;;;6.10;;
5077;SDS011;2557;51.390;7.494;2024-02-26T12:51:33;6.17;;;5.40;;
5077;SDS011;2557;51.390;7.494;2024-02-26T12:53:59;6.07;;;5.50;;
5077;SDS011;2557;51.390;7.494;2024-02-26T12:56:26;5.27;;;4.80;;
5077;SDS011;2557;51.390;7.494;2024-02-26T12:58:53;10.53;;;5.83;;
5077;SDS011;2557;51.390;7.494;2024-02-26T13:01:22;8.47;;;5.57;;
5077;SDS011;2557;51.390;7.494;2024-02-26T13:03:49;6.00;;;5.47;;
5077;SDS011;2557;51.390;7.494;2024-02-26T13:06:16;16.20;;;6.83;;
5077;SDS011;2557;51.390;7.494;2024-02-26T13:08:43;7.30;;;6.50;;
5077;SDS011;2557;51.390;7.494;2024-02-26T13:11:09;7.07;;;6.00;;
5077;SDS011;2557;51.390;7.494;2024-02-26T13:13:35;9.47;;;6.30;;
5077;SDS011;2557;51.390;7.494;2024-02-26T13:16:02;7.53;;;5.90;;
5077;SDS011;2557;51.390;7.494;2024-02-26T13:18:29;7.63;;;6.50;;
5077;SDS011;2557;51.390;7.494;2024-02-26T13:21:08;6.97;;;6.27;;
5077;SDS011;2557;51.390;7.494;2024-02-26T13:23:34;8.30;;;7.10;;
5077;SDS011;2557;51.390;7.494;2024-02-26T13:26:00;8.57;;;7.33;;
5077;SDS011;2557;51.390;7.494;2024-02-26T13:28:26;12.73;;;7.07;;
5077;SDS011;2557;51.390;7.494;2024-02-26T13:30:56;10.53;;;6.87;;
5077;SDS011;2557;51.390;7.494;2024-02-26T13:33:23;9.17;;;7.10;;
5077;SDS011;2557;51.390;7.494;2024-02-26T13:35:49;10.80;;;7.87;;
5077;SDS011;2557;51.390;7.494;2024-02-26T13:38:15;13.30;;;8.13;;
5077;SDS011;2557;51.390;7.494;2024-02-26T13:40:42;11.33;;;6.90;;
5077;SDS011;2557;51.390;7.494;2024-02-26T13:43:08;9.90;;;7.10;;
5077;SDS011;2557;51.390;7.494;2024-02-26T13:45:34;10.73;;;7.77;;
5077;SDS011;2557;51.390;7.494;2024-02-26T13:48:01;7.63;;;6.83;;
5077;SDS011;2557;51.390;7.494;2024-02-26T13:50:28;8.90;;;8.00;;
5077;SDS011;2557;51.390;7.494;2024-02-26T13:52:54;8.93;;;7.47;;
5077;SDS011;2557;51.390;7.494;2024-02-26T13:55:21;18.43;;;8.47;;
5077;SDS011;2557;51.390;7.494;2024-02-26T13:57:49;10.23;;;7.43;;
5077;SDS011;2557;51.390;7.494;2024-02-26T14:00:17;9.40;;;7.50;;
5077;SDS011;2557;51.390;7.494;2024-02-26T14:02:43;13.40;;;7.40;;
5077;SDS011;2557;51.390;7.494;2024-02-26T14:05:09;9.00;;;7.37;;
5077;SDS011;2557;51.390;7.494;2024-02-26T14:07:35;8.50;;;7.23;;
5077;SDS011;2557;51.390;7.494;2024-02-26T14:10:01;8.53;;;6.80;;
5077;SDS011;2557;51.390;7.494;2024-02-26T14:12:27;7.43;;;6.50;;
5077;SDS011;2557;51.390;7.494;2024-02-26T14:14:53;7.70;;;7.00;;
5077;SDS011;2557;51.390;7.494;2024-02-26T14:17:20;9.60;;;7.60;;
5077;SDS011;2557;51.390;7.494;2024-02-26T14:19:47;10.90;;;6.90;;
5077;SDS011;2557;51.390;7.494;2024-02-26T14:22:13;8.37;;;7.13;;
5077;SDS011;2557;51.390;7.494;2024-02-26T14:24:42;8.60;;;7.00;;
5077;SDS011;2557;51.390;7.494;2024-02-26T14:27:09;11.07;;;6.53;;
5077;SDS011;2557;51.390;7.494;2024-02-26T14:29:36;8.80;;;7.20;;
5077;SDS011;2557;51.390;7.494;2024-02-26T14:32:05;7.43;;;6.40;;
5077;SDS011;2557;51.390;7.494;2024-02-26T14:34:31;11.73;;;7.07;;
5077;SDS011;2557;51.390;7.494;2024-02-26T14:36:57;8.80;;;7.77;;
5077;SDS011;2557;51.390;7.494;2024-02-26T14:39:23;10.50;;;8.27;;
5077;SDS011;2557;51.390;7.494;2024-02-26T14:41:49;17.20;;;9.87;;
5077;SDS011;2557;51.390;7.494;2024-02-26T14:44:15;11.80;;;9.53;;
5077;SDS011;2557;51.390;7.494;2024-02-26T14:46:41;17.20;;;10.07;;
5077;SDS011;2557;51.390;7.494;2024-02-26T14:49:07;12.87;;;8.80;;
5077;SDS011;2557;51.390;7.494;2024-02-26T14:51:33;11.13;;;9.53;;
5077;SDS011;2557;51.390;7.494;2024-02-26T14:53:59;11.23;;;8.13;;
5077;SDS011;2557;51.390;7.494;2024-02-26T14:56:27;8.90;;;7.67;;
5077;SDS011;2557;51.390;7.494;2024-02-26T14:58:53;8.70;;;7.77;;
5077;SDS011;2557;51.390;7.494;2024-02-26T15:01:19;8.90;;;8.00;;
5077;SDS011;2557;51.390;7.494;2024-02-26T15:03:45;9.80;;;8.73;;
5077;SDS011;2557;51.390;7.494;2024-02-26T15:06:11;15.00;;;7.13;;
5077;SDS011;2557;51.390;7.494;2024-02-26T15:08:37;9.83;;;7.70;;
5077;SDS011;2557;51.390;7.494;2024-02-26T15:11:03;9.67;;;8.13;;
5077;SDS011;2557;51.390;7.494;2024-02-26T15:13:30;9.33;;;7.03;;